Time;durP1;ratioP1;P1;durP2;ratioP2;P2;SDS_P1;SDS_P2;PMS_P1;PMS_P2;Temp;Humidity;BMP_temperature;BMP_pressure;BME280_temperature;BME280_humidity;BME280_pressure;Samples;Min_cycle;Max_cycle;Signal;HPM_P1;HPM_P2
2021/07/04 00:08:29;;;;;;;17.05;14.32;;;13.60;99.90;;;;;;20913042;28;20526;-50
2021/07/04 00:18:33;;;;;;;20.13;15.38;;;13.40;99.90;;;;;;20913667;28;20041;-51
2021/07/04 00:28:35;;;;;;;20.92;16.85;;;13.20;99.90;;;;;;20911345;28;20036;-51
2021/07/04 00:38:37;;;;;;;18.67;14.82;;;13.00;99.90;;;;;;20910902;28;20037;-52
2021/07/04 00:48:39;;;;;;;14.88;12.57;;;12.70;99.90;;;;;;20908421;28;20053;-52
2021/07/04 00:58:41;;;;;;;20.27;15.93;;;12.50;99.90;;;;;;20909028;28;20044;-51
2021/07/04 01:08:43;;;;;;;23.35;16.88;;;12.30;99.90;;;;;;20906403;28;20043;-52
2021/07/04 01:18:45;;;;;;;28.88;19.52;;;12.10;99.90;;;;;;20889548;28;20052;-51
2021/07/04 01:28:53;;;;;;;35.08;22.55;;;12.10;99.90;;;;;;20907141;28;20540;-52
2021/07/04 01:38:57;;;;;;;33.47;21.92;;;12.10;99.90;;;;;;20906066;28;20033;-48
2021/07/04 01:48:59;;;;;;;32.55;22.42;;;12.10;99.90;;;;;;20904408;28;20105;-52
2021/07/04 01:59:01;;;;;;;33.25;23.75;;;12.00;99.90;;;;;;20905358;28;20049;-49
2021/07/04 02:09:13;;;;;;;40.15;26.50;;;12.00;99.90;;;;;;20904079;28;20033;-51
2021/07/04 02:19:15;;;;;;;37.65;24.90;;;11.90;99.90;;;;;;20904726;28;20498;-50
2021/07/04 02:29:42;;;;;;;52.53;30.58;;;11.90;99.90;;;;;;20920205;28;20044;-54
2021/07/04 02:39:55;;;;;;;49.78;32.38;;;11.90;99.90;;;;;;20920409;28;20423;-51
2021/07/04 02:49:57;;;;;;;45.63;29.80;;;11.90;99.90;;;;;;20919183;28;20107;-50
2021/07/04 03:00:00;;;;;;;53.00;31.67;;;11.80;99.90;;;;;;20917515;28;20033;-49
2021/07/04 03:10:07;;;;;;;60.55;33.45;;;11.70;99.90;;;;;;20917417;28;20094;-50
2021/07/04 03:20:11;;;;;;;50.75;29.10;;;11.80;99.90;;;;;;20915572;28;20044;-48
2021/07/04 03:30:18;;;;;;;60.80;33.70;;;11.80;99.90;;;;;;20914279;28;20029;-51
2021/07/04 03:40:21;;;;;;;58.75;33.00;;;11.70;99.90;;;;;;20914288;28;20052;-49
2021/07/04 03:50:30;;;;;;;63.30;35.50;;;11.80;99.90;;;;;;20913104;28;20107;-50
2021/07/04 04:00:33;;;;;;;66.00;41.58;;;11.90;99.90;;;;;;20913896;28;20029;-53
2021/07/04 04:10:43;;;;;;;;;;;12.20;99.90;;;;;;20913665;28;20037;-50
2021/07/04 04:20:49;;;;;;;61.40;35.50;;;12.50;99.90;;;;;;20911421;28;20354;-51
2021/07/04 04:30:52;;;;;;;55.70;33.63;;;12.60;99.90;;;;;;20910353;28;20060;-55
2021/07/04 04:40:56;;;;;;;42.90;28.88;;;12.80;99.90;;;;;;20909411;28;20037;-49
2021/07/04 04:50:59;;;;;;;40.75;26.55;;;13.40;99.90;;;;;;20909916;28;20045;-51
2021/07/04 05:01:01;;;;;;;39.42;25.90;;;13.50;99.90;;;;;;20909360;28;20371;-48
2021/07/04 05:11:02;;;;;;;27.77;22.50;;;13.60;99.90;;;;;;20908306;28;20041;-49
2021/07/04 05:21:04;;;;;;;23.08;18.50;;;13.90;99.90;;;;;;20907715;28;20478;-49
2021/07/04 05:31:06;;;;;;;19.95;17.08;;;14.30;99.90;;;;;;20907202;28;20466;-51
2021/07/04 05:41:13;;;;;;;27.65;17.50;;;14.40;99.90;;;;;;20905780;28;20033;-51
2021/07/04 05:51:15;;;;;;;20.23;17.48;;;14.60;99.90;;;;;;20905807;28;20045;-48
2021/07/04 06:01:17;;;;;;;15.82;13.20;;;15.10;99.90;;;;;;20904767;28;20040;-52
2021/07/04 06:11:19;;;;;;;13.15;10.55;;;16.10;99.90;;;;;;20904375;28;20036;-52
2021/07/04 06:21:21;;;;;;;11.68;9.63;;;17.00;99.90;;;;;;20904835;28;20103;-48
2021/07/04 06:31:24;;;;;;;11.30;9.57;;;17.10;99.90;;;;;;20903210;28;20091;-54
2021/07/04 06:41:26;;;;;;;10.85;9.73;;;17.10;99.90;;;;;;20903518;28;20040;-50
2021/07/04 06:51:29;;;;;;;10.90;9.75;;;17.30;99.90;;;;;;20903167;28;20556;-50
2021/07/04 07:01:32;;;;;;;13.30;9.05;;;17.40;99.90;;;;;;20903135;28;20083;-51
2021/07/04 07:11:34;;;;;;;11.52;8.52;;;17.40;99.90;;;;;;20912713;28;20037;-51
2021/07/04 07:21:37;;;;;;;11.00;9.25;;;17.60;99.90;;;;;;20917029;28;20033;-50
2021/07/04 07:31:38;;;;;;;9.63;8.65;;;18.00;99.90;;;;;;20916385;28;20356;-50
2021/07/04 07:41:41;;;;;;;8.63;7.03;;;18.10;99.90;;;;;;20915457;28;20037;-49
2021/07/04 07:51:44;;;;;;;9.80;7.20;;;18.60;99.90;;;;;;20914498;28;20099;-53
2021/07/04 08:01:49;;;;;;;9.63;6.57;;;18.40;99.90;;;;;;20912742;28;20037;-52
2021/07/04 08:11:51;;;;;;;8.95;7.15;;;18.20;99.90;;;;;;20913096;28;20041;-49
2021/07/04 08:21:55;;;;;;;7.15;6.10;;;18.50;99.90;;;;;;20910108;28;20033;-52
2021/07/04 08:31:56;;;;;;;7.68;5.88;;;18.80;99.90;;;;;;20911842;28;20024;-47
2021/07/04 08:41:59;;;;;;;5.75;5.15;;;20.10;99.90;;;;;;20910806;28;20060;-48
2021/07/04 08:52:01;;;;;;;5.50;4.95;;;23.20;99.90;;;;;;20910082;28;20061;-48
2021/07/04 09:02:05;;;;;;;6.50;5.63;;;25.20;99.90;;;;;;20908738;28;20036;-50
2021/07/04 09:12:10;;;;;;;9.35;6.85;;;24.20;99.90;;;;;;20908006;28;20041;-50
2021/07/04 09:22:12;;;;;;;8.93;7.10;;;23.10;99.90;;;;;;20907473;28;20037;-47
2021/07/04 09:32:25;;;;;;;8.20;7.30;;;21.90;99.90;;;;;;20906547;28;20037;-48
2021/07/04 09:42:28;;;;;;;8.73;7.85;;;20.80;99.90;;;;;;20905800;28;20608;-52
2021/07/04 09:52:30;;;;;;;11.45;9.88;;;20.30;99.90;;;;;;20905427;28;20482;-49
2021/07/04 10:02:38;;;;;;;11.38;10.32;;;20.30;99.90;;;;;;20903972;28;20059;-50
2021/07/04 10:12:41;;;;;;;12.52;11.23;;;19.90;99.90;;;;;;20905867;28;20448;-50
2021/07/04 10:22:43;;;;;;;18.80;14.93;;;19.40;99.90;;;;;;20903977;28;20041;-47
2021/07/04 10:33:32;;;;;;;19.42;17.33;;;18.60;99.90;;;;;;20903426;28;20024;-50
2021/07/04 10:43:51;;;;;;;21.70;17.42;;;18.10;99.90;;;;;;20806574;28;20110;-48
2021/07/04 10:53:55;;;;;;;18.87;16.87;;;18.10;99.90;;;;;;20921205;28;20544;-51
2021/07/04 11:03:57;;;;;;;17.40;15.52;;;18.40;99.90;;;;;;20917222;28;20033;-49
2021/07/04 11:14:08;;;;;;;19.35;17.35;;;18.30;99.90;;;;;;20917446;28;20024;-47
2021/07/04 11:24:19;;;;;;;23.90;19.45;;;18.00;99.90;;;;;;20916789;28;20094;-48
2021/07/04 11:34:21;;;;;;;20.77;18.58;;;17.80;99.90;;;;;;20916454;28;20049;-47
2021/07/04 11:44:24;;;;;;;20.75;18.30;;;17.70;99.90;;;;;;20914195;28;20041;-48
2021/07/04 11:54:30;;;;;;;22.85;20.30;;;17.60;99.90;;;;;;20913224;28;20045;-49
2021/07/04 12:04:39;;;;;;;23.63;21.02;;;17.30;99.90;;;;;;20913489;28;20063;-54
2021/07/04 12:14:42;;;;;;;;;;;17.30;99.90;;;;;;20913623;28;20029;-49
2021/07/04 12:24:45;;;;;;;22.48;20.10;;;17.30;99.90;;;;;;20912442;28;19916;-48
2021/07/04 12:34:46;;;;;;;27.67;22.77;;;17.40;99.90;;;;;;20911452;28;20025;-54
2021/07/04 12:45:10;;;;;;;216.40;30.30;;;17.30;99.90;;;;;;20910591;28;20032;-53
2021/07/04 12:55:12;;;;;;;15.93;14.23;;;16.60;99.90;;;;;;20905911;28;20064;-50
2021/07/04 13:05:15;;;;;;;20.85;16.30;;;15.80;99.90;;;;;;20908084;28;20037;-51
2021/07/04 13:15:23;;;;;;;15.13;12.63;;;15.30;99.90;;;;;;20907840;28;20364;-49
2021/07/04 13:25:32;;;;;;;25.80;19.50;;;15.00;99.90;;;;;;20907315;28;20036;-48
2021/07/04 13:35:36;;;;;;;42.93;30.90;;;14.60;99.90;;;;;;20905903;28;20037;-49
2021/07/04 13:45:45;;;;;;;21.50;16.23;;;14.70;99.90;;;;;;20904163;28;20094;-48
2021/07/04 13:55:49;;;;;;;34.07;27.43;;;14.70;99.90;;;;;;20904794;28;20037;-48
2021/07/04 14:05:51;;;;;;;27.90;21.25;;;14.70;99.90;;;;;;20822122;28;20083;-50
2021/07/04 14:15:55;;;;;;;25.73;20.95;;;15.00;99.90;;;;;;20877692;28;20406;-49
2021/07/04 14:25:57;;;;;;;23.42;19.48;;;15.20;99.90;;;;;;20921942;28;20025;-51
2021/07/04 14:36:00;;;;;;;13.15;11.55;;;15.30;99.90;;;;;;20919712;28;20467;-50
2021/07/04 14:46:03;;;;;;;538.42;50.45;;;15.20;99.90;;;;;;20919094;28;20056;-51
2021/07/04 14:56:10;;;;;;;300.13;38.25;;;14.90;99.90;;;;;;20918545;28;20544;-49
2021/07/04 15:06:13;;;;;;;553.13;46.55;;;15.10;99.90;;;;;;20917691;28;20033;-50
2021/07/04 15:16:15;;;;;;;845.70;69.90;;;15.20;99.90;;;;;;20917031;28;20092;-50
2021/07/04 15:26:18;;;;;;;20.27;16.38;;;15.10;99.90;;;;;;20915152;28;20036;-53
2021/07/04 15:36:24;;;;;;;16.98;13.15;;;15.10;99.90;;;;;;20914233;28;20033;-53
2021/07/04 15:46:26;;;;;;;13.45;11.98;;;15.00;99.90;;;;;;20914578;28;20052;-48
2021/07/04 15:56:28;;;;;;;13.07;9.43;;;15.10;99.90;;;;;;20914276;28;20467;-51
2021/07/04 16:06:30;;;;;;;11.75;8.95;;;14.90;99.90;;;;;;20913300;28;20452;-48
2021/07/04 16:16:34;;;;;;;8.07;6.50;;;14.90;99.90;;;;;;20911376;28;20033;-51
2021/07/04 16:26:36;;;;;;;8.02;6.97;;;14.70;99.90;;;;;;20910487;28;20475;-48
2021/07/04 16:36:38;;;;;;;10.90;8.25;;;14.50;99.90;;;;;;20908933;28;20049;-50
2021/07/04 16:46:42;;;;;;;11.40;7.80;;;14.60;99.90;;;;;;20909371;28;20041;-51
2021/07/04 16:56:44;;;;;;;0.77;0.63;;;14.70;99.90;;;;;;20909584;28;20040;-48
2021/07/04 17:06:46;;;;;;;1.88;0.20;;;14.30;99.90;;;;;;20908367;28;20037;-49
2021/07/04 17:16:48;;;;;;;0.20;0.20;;;13.80;99.90;;;;;;20907700;28;20040;-52
2021/07/04 17:26:50;;;;;;;0.55;0.22;;;13.70;99.90;;;;;;20906946;28;20029;-50
2021/07/04 17:36:52;;;;;;;0.77;0.30;;;13.50;99.90;;;;;;20906204;28;20431;-49
2021/07/04 17:46:54;;;;;;;0.50;0.40;;;13.60;99.90;;;;;;20906459;28;20049;-51
2021/07/04 17:56:56;;;;;;;3.22;1.20;;;13.50;99.90;;;;;;20904291;28;20505;-51
2021/07/04 18:06:59;;;;;;;0.80;0.80;;;13.80;99.90;;;;;;20904608;28;20033;-50
2021/07/04 18:17:01;;;;;;;1.60;1.10;;;13.80;99.90;;;;;;20904165;28;20408;-54
2021/07/04 18:27:05;;;;;;;1.88;1.20;;;13.60;99.90;;;;;;20903671;28;20041;-52
2021/07/04 18:37:08;;;;;;;1.90;1.30;;;13.40;99.90;;;;;;20903677;28;20532;-50
2021/07/04 18:47:10;;;;;;;1.48;1.10;;;13.40;99.90;;;;;;20902792;28;20091;-49
2021/07/04 18:57:31;;;;;;;1.42;1.10;;;13.40;99.90;;;;;;20902559;28;20036;-51
2021/07/04 19:07:45;;;;;;;1.73;1.27;;;13.10;99.90;;;;;;20913283;28;20036;-51
2021/07/04 19:17:49;;;;;;;7.70;1.80;;;12.70;99.90;;;;;;20917402;28;20079;-49
2021/07/04 19:27:52;;;;;;;3.20;1.40;;;12.40;99.90;;;;;;20915951;28;20037;-48
2021/07/04 19:37:55;;;;;;;1.52;1.42;;;12.10;99.90;;;;;;20915333;28;20037;-48
2021/07/04 19:47:58;;;;;;;2.28;1.45;;;12.10;99.90;;;;;;20914595;28;20102;-50
2021/07/04 19:58:02;;;;;;;2.55;1.95;;;12.10;99.90;;;;;;20914267;28;20029;-51
2021/07/04 20:08:10;;;;;;;3.22;2.28;;;12.30;99.90;;;;;;20913171;28;20033;-52
2021/07/04 20:18:13;;;;;;;3.88;1.40;;;12.30;99.90;;;;;;20911976;28;20098;-54
2021/07/04 20:28:15;;;;;;;1.33;0.50;;;12.40;99.90;;;;;;20911421;28;20482;-50
2021/07/04 20:38:17;;;;;;;1.15;0.50;;;12.30;99.90;;;;;;20910882;28;20028;-51
2021/07/04 20:48:20;;;;;;;0.98;0.65;;;12.10;99.90;;;;;;20909648;28;20556;-52
2021/07/04 20:58:24;;;;;;;1.48;1.13;;;12.00;99.90;;;;;;20909135;28;20032;-52
2021/07/04 21:08:26;;;;;;;1.52;1.27;;;12.10;99.90;;;;;;20906567;28;20063;-48
2021/07/04 21:18:28;;;;;;;3.08;1.60;;;11.80;99.90;;;;;;20904530;28;20395;-52
2021/07/04 21:28:30;;;;;;;2.40;2.08;;;11.40;99.90;;;;;;20906035;28;20033;-51
2021/07/04 21:38:31;;;;;;;3.53;2.70;;;11.20;99.90;;;;;;20905614;28;20043;-48
2021/07/04 21:48:33;;;;;;;4.45;3.20;;;11.20;99.90;;;;;;20905422;28;20045;-48
2021/07/04 21:58:36;;;;;;;5.53;4.55;;;11.00;99.90;;;;;;20905128;28;20048;-51
2021/07/04 22:08:38;;;;;;;6.38;5.00;;;11.00;99.90;;;;;;20904200;28;20439;-50
2021/07/04 22:18:40;;;;;;;4.70;3.65;;;11.00;99.90;;;;;;20903808;28;20486;-50
2021/07/04 22:28:42;;;;;;;1.20;0.90;;;10.90;99.90;;;;;;20903602;28;20495;-52
2021/07/04 22:38:43;;;;;;;4.78;0.25;;;10.90;99.90;;;;;;20909262;28;20047;-48
2021/07/04 22:48:45;;;;;;;0.47;0.22;;;11.50;99.90;;;;;;20918965;28;20521;-48
2021/07/04 22:58:48;;;;;;;0.32;0.30;;;11.40;99.90;;;;;;20918381;28;20397;-49
2021/07/04 23:08:49;;;;;;;0.20;0.20;;;11.40;99.90;;;;;;20917611;28;20029;-49
2021/07/04 23:18:51;;;;;;;0.22;0.10;;;11.60;99.90;;;;;;20916887;28;20041;-51
2021/07/04 23:28:53;;;;;;;0.10;0.10;;;11.50;99.90;;;;;;20916059;28;20029;-48
2021/07/04 23:38:55;;;;;;;0.98;0.10;;;11.90;99.90;;;;;;20915507;28;20037;-53
2021/07/04 23:48:57;;;;;;;1.65;0.10;;;12.00;99.90;;;;;;20913913;28;20087;-48
2021/07/04 23:59:00;;;;;;;0.08;0.00;;;11.90;99.90;;;;;;20913931;28;20029;-50
